Time;durP1;ratioP1;P1;durP2;ratioP2;P2;SDS_P1;SDS_P2;PMS_P1;PMS_P2;Temp;Humidity;BMP_temperature;BMP_pressure;BME280_temperature;BME280_humidity;BME280_pressure;Samples;Min_cycle;Max_cycle;Signal;HPM_P1;HPM_P2
2021/08/05 00:01:20;;;;;;;7.10;3.85;;;;;;;13.28;68.65;100485.69;5062729;28;20029;-67
2021/08/05 00:03:45;;;;;;;6.25;3.90;;;;;;;13.30;68.72;100485.66;5062947;28;20017;-67
2021/08/05 00:06:11;;;;;;;5.75;3.92;;;;;;;13.29;68.59;100492.59;5062559;28;20045;-67
2021/08/05 00:08:36;;;;;;;8.43;4.50;;;;;;;13.25;68.76;100493.56;5065645;28;20096;-67
2021/08/05 00:11:01;;;;;;;7.15;4.65;;;;;;;13.23;68.81;100500.53;5065367;28;20055;-67
2021/08/05 00:13:28;;;;;;;11.85;5.03;;;;;;;13.21;68.88;100497.13;5066592;28;20032;-67
2021/08/05 00:15:54;;;;;;;9.30;5.10;;;;;;;13.14;69.03;100496.38;5065121;28;20432;-67
2021/08/05 00:18:19;;;;;;;6.90;4.45;;;;;;;13.10;69.24;100502.53;5066557;28;20036;-67
2021/08/05 00:20:45;;;;;;;6.18;4.50;;;;;;;13.02;69.20;100498.28;5066498;28;20017;-67
2021/08/05 00:23:11;;;;;;;7.97;4.50;;;;;;;13.02;69.18;100503.50;5066212;28;20099;-67
2021/08/05 00:25:37;;;;;;;9.13;4.70;;;;;;;12.97;69.29;100504.47;5066324;28;20032;-67
2021/08/05 00:28:02;;;;;;;8.30;4.63;;;;;;;12.93;69.36;100502.78;5064957;28;20017;-67
2021/08/05 00:30:27;;;;;;;10.27;5.28;;;;;;;12.87;69.58;100504.63;5066370;28;20044;-67
2021/08/05 00:32:53;;;;;;;7.95;5.40;;;;;;;12.83;69.80;100496.88;5065994;28;20278;-67
2021/08/05 00:35:18;;;;;;;5.40;4.55;;;;;;;12.82;70.12;100506.44;5066244;28;20048;-68
2021/08/05 00:37:44;;;;;;;7.85;5.60;;;;;;;12.83;70.04;100507.28;5065694;28;20045;-67
2021/08/05 00:40:09;;;;;;;7.05;5.50;;;;;;;12.80;70.13;100508.22;5066029;28;20477;-68
2021/08/05 00:42:36;;;;;;;12.48;5.40;;;;;;;12.77;70.10;100505.66;5065946;28;20043;-67
2021/08/05 00:45:01;;;;;;;6.43;5.00;;;;;;;12.72;70.36;100495.31;5065922;28;20531;-67
2021/08/05 00:47:28;;;;;;;8.38;4.85;;;;;;;12.75;70.43;100499.59;5065654;28;20021;-68
2021/08/05 00:49:55;;;;;;;10.57;5.35;;;;;;;12.72;70.38;100504.88;5064325;28;20025;-67
2021/08/05 00:52:20;;;;;;;8.75;4.95;;;;;;;12.72;70.49;100499.66;5065823;28;20036;-67
2021/08/05 00:54:46;;;;;;;11.52;4.93;;;;;;;12.74;70.60;100505.72;5065945;28;20029;-67
2021/08/05 00:57:11;;;;;;;6.40;4.63;;;;;;;12.75;70.57;100504.81;5065449;28;20085;-67
2021/08/05 00:59:37;;;;;;;8.32;5.38;;;;;;;12.74;70.62;100503.09;5065771;28;20041;-68
2021/08/05 01:02:17;;;;;;;9.30;4.97;;;;;;;12.70;70.31;100498.84;5065647;28;20056;-67
2021/08/05 01:04:45;;;;;;;6.78;4.90;;;;;;;12.66;70.71;100489.34;5065719;28;20041;-67
2021/08/05 01:07:17;;;;;;;7.32;4.05;;;;;;;12.72;70.84;100495.31;5065636;28;20615;-67
2021/08/05 01:10:07;;;;;;;7.78;5.03;;;;;;;12.75;70.61;100497.00;5065629;28;20045;-67
2021/08/05 01:13:00;;;;;;;7.82;4.75;;;;;;;12.75;70.78;100490.06;5063977;28;20057;-66
2021/08/05 01:15:27;;;;;;;4.63;3.63;;;;;;;12.75;70.90;100491.78;5065478;28;20016;-67
2021/08/05 01:17:58;;;;;;;11.15;4.18;;;;;;;12.75;71.13;100489.19;5065160;28;20028;-67
2021/08/05 01:20:25;;;;;;;6.15;4.00;;;;;;;12.80;71.17;100491.72;5064179;28;20052;-68
2021/08/05 01:22:59;;;;;;;6.68;5.30;;;;;;;12.82;71.12;100496.03;5065132;28;20028;-68
2021/08/05 01:25:31;;;;;;;8.40;4.70;;;;;;;12.81;71.31;100489.06;5065297;28;20025;-68
2021/08/05 01:27:59;;;;;;;5.68;4.60;;;;;;;12.84;71.10;100490.78;5063999;28;20032;-68
2021/08/05 01:30:26;;;;;;;7.85;4.13;;;;;;;12.84;71.35;100494.25;5064929;28;20025;-68
2021/08/05 01:32:53;;;;;;;5.30;3.83;;;;;;;12.83;71.43;100495.13;5065093;28;20029;-68
2021/08/05 01:35:19;;;;;;;9.75;4.40;;;;;;;12.84;71.39;100494.25;5065000;28;20025;-68
2021/08/05 01:37:45;;;;;;;6.88;4.00;;;;;;;12.81;71.43;100488.25;5064637;28;20116;-68
2021/08/05 01:40:12;;;;;;;8.20;4.45;;;;;;;12.82;71.65;100490.81;5064840;28;20020;-67
2021/08/05 01:42:38;;;;;;;6.13;4.28;;;;;;;12.79;71.45;100490.88;5064687;28;20139;-69
2021/08/05 01:45:05;;;;;;;7.53;4.45;;;;;;;12.75;71.58;100491.78;5064781;28;20028;-68
2021/08/05 01:47:30;;;;;;;7.95;4.40;;;;;;;12.73;71.47;100488.38;5064602;28;20028;-68
2021/08/05 01:49:56;;;;;;;8.88;4.85;;;;;;;12.69;71.55;100482.34;5064643;28;20017;-68
2021/08/05 01:52:22;;;;;;;7.80;4.95;;;;;;;12.63;71.67;100485.91;5064562;28;20029;-68
2021/08/05 01:54:47;;;;;;;9.60;5.35;;;;;;;12.61;71.82;100489.41;5063079;28;20102;-67
2021/08/05 01:57:15;;;;;;;6.95;4.90;;;;;;;12.57;71.84;100488.59;5064571;28;20021;-67
2021/08/05 01:59:40;;;;;;;8.25;5.28;;;;;;;12.54;71.86;100488.63;5064402;28;20104;-67
2021/08/05 02:02:07;;;;;;;9.52;5.45;;;;;;;12.49;71.78;100482.66;5063228;28;20017;-67
2021/08/05 02:05:04;;;;;;;9.82;5.30;;;;;;;12.48;71.84;100492.22;5062966;28;20032;-68
2021/08/05 02:07:37;;;;;;;11.05;6.25;;;;;;;12.43;72.00;100493.16;5064143;28;20242;-67
2021/08/05 02:10:17;;;;;;;11.02;5.28;;;;;;;12.36;71.98;100497.59;5064270;28;20020;-66
2021/08/05 02:12:46;;;;;;;7.63;5.25;;;;;;;12.34;72.18;100499.34;5064049;28;20017;-67
2021/08/05 02:15:12;;;;;;;12.50;6.22;;;;;;;12.27;72.31;100494.25;5064144;28;20425;-67
2021/08/05 02:17:41;;;;;;;9.15;6.03;;;;;;;12.24;72.39;100493.41;5063888;28;20039;-69
2021/08/05 02:20:09;;;;;;;9.52;5.75;;;;;;;12.20;72.63;100491.75;5064082;28;20086;-67
2021/08/05 02:22:37;;;;;;;9.90;5.95;;;;;;;12.17;72.35;100483.97;5063908;28;20049;-68
2021/08/05 02:25:03;;;;;;;8.13;5.20;;;;;;;12.19;72.71;100495.25;5062505;28;20052;-68
2021/08/05 02:27:29;;;;;;;7.97;5.15;;;;;;;12.17;72.80;100497.88;5064032;28;20049;-68
2021/08/05 02:29:56;;;;;;;7.70;4.85;;;;;;;12.16;72.90;100490.06;5063402;28;20024;-68
2021/08/05 02:32:22;;;;;;;9.60;4.78;;;;;;;12.18;72.81;100493.50;5063796;28;20111;-68
2021/08/05 02:34:48;;;;;;;11.35;5.72;;;;;;;12.11;73.04;100482.31;5062266;28;20032;-68
2021/08/05 02:37:14;;;;;;;7.55;5.22;;;;;;;12.18;72.86;100494.38;5062155;28;20905;-68
2021/08/05 02:39:40;;;;;;;12.55;5.28;;;;;;;12.17;73.05;100495.25;5063836;28;20028;-67
2021/08/05 02:42:07;;;;;;;8.73;5.30;;;;;;;12.16;73.32;100492.69;5063828;28;20017;-67
2021/08/05 02:44:33;;;;;;;8.52;5.20;;;;;;;12.13;73.73;100491.84;5063643;28;20017;-67
2021/08/05 02:47:00;;;;;;;7.60;5.28;;;;;;;12.01;73.93;100472.00;5063664;28;20027;-68
2021/08/05 02:49:28;;;;;;;10.63;5.47;;;;;;;12.13;74.02;100488.34;5063601;28;20024;-68
2021/08/05 02:51:56;;;;;;;10.45;4.00;;;;;;;12.21;74.28;100486.53;5063560;28;20029;-68
2021/08/05 02:54:22;;;;;;;8.73;3.75;;;;;;;12.29;74.40;100485.53;5063319;28;20381;-68
2021/08/05 02:56:48;;;;;;;6.70;3.72;;;;;;;12.38;74.43;100491.47;5063426;28;20129;-68
2021/08/05 02:59:14;;;;;;;8.55;4.15;;;;;;;12.47;74.27;100487.91;5063331;28;20457;-67
2021/08/05 03:01:40;;;;;;;6.50;4.72;;;;;;;12.54;74.19;100487.78;5063525;28;20017;-66
2021/08/05 03:04:06;;;;;;;7.80;4.47;;;;;;;12.59;74.07;100479.00;5063553;28;20077;-67
2021/08/05 03:06:31;;;;;;;6.07;4.05;;;;;;;12.63;74.10;100480.72;5063515;28;20028;-67
2021/08/05 03:08:57;;;;;;;6.70;4.80;;;;;;;12.64;73.92;100476.34;5063270;28;20338;-68
2021/08/05 03:11:23;;;;;;;7.03;4.28;;;;;;;12.67;73.77;100480.66;5063463;28;20104;-68
2021/08/05 03:13:49;;;;;;;7.20;4.57;;;;;;;12.69;73.78;100482.34;5061764;28;20031;-68
2021/08/05 03:16:16;;;;;;;6.43;4.20;;;;;;;12.70;73.56;100480.59;5063252;28;20028;-67
2021/08/05 03:18:41;;;;;;;8.15;4.53;;;;;;;12.70;73.51;100483.22;5062040;28;20021;-67
2021/08/05 03:21:07;;;;;;;8.45;4.38;;;;;;;12.69;73.46;100478.88;5063189;28;20029;-67
2021/08/05 03:23:32;;;;;;;6.15;4.32;;;;;;;12.69;73.66;100476.25;5063004;28;20032;-67
2021/08/05 03:25:58;;;;;;;7.80;4.55;;;;;;;12.73;73.57;100483.16;5062974;28;20044;-68
2021/08/05 03:28:23;;;;;;;6.30;4.35;;;;;;;12.75;73.73;100474.41;5063172;28;20100;-68
2021/08/05 03:30:48;;;;;;;8.70;3.95;;;;;;;12.80;73.61;100476.09;5063034;28;20017;-68
2021/08/05 03:33:14;;;;;;;6.43;4.18;;;;;;;12.82;73.52;100471.72;5063121;28;20025;-67
2021/08/05 03:35:39;;;;;;;7.70;4.22;;;;;;;12.86;73.55;100471.63;5063205;28;20025;-68
2021/08/05 03:38:04;;;;;;;6.28;4.80;;;;;;;12.89;73.41;100471.59;5062702;28;20573;-68
2021/08/05 03:40:30;;;;;;;7.28;4.68;;;;;;;12.92;73.43;100473.28;5063160;28;20017;-68
2021/08/05 03:42:55;;;;;;;8.15;4.93;;;;;;;12.89;73.38;100466.38;5064973;28;20029;-68
2021/08/05 03:45:21;;;;;;;6.10;4.45;;;;;;;12.91;73.44;100462.91;5067073;28;20032;-68
2021/08/05 03:47:46;;;;;;;5.80;5.05;;;;;;;12.93;73.65;100458.50;5066973;28;20029;-68
2021/08/05 03:50:12;;;;;;;5.75;3.97;;;;;;;13.16;74.11;100465.94;5065541;28;20112;-68
2021/08/05 03:52:37;;;;;;;6.53;4.25;;;;;;;13.46;74.21;100467.97;5066694;28;20024;-67
2021/08/05 03:55:03;;;;;;;7.25;3.85;;;;;;;13.71;74.06;100454.47;5066861;28;20074;-67
2021/08/05 03:57:29;;;;;;;6.30;3.67;;;;;;;13.95;73.69;100460.91;5066676;28;20100;-67
2021/08/05 03:59:54;;;;;;;6.65;3.33;;;;;;;14.09;73.33;100468.44;5066703;28;20033;-68
2021/08/05 04:02:19;;;;;;;10.07;3.90;;;;;;;14.29;73.17;100461.91;5066711;28;20025;-66
2021/08/05 04:04:45;;;;;;;4.38;3.35;;;;;;;14.56;73.20;100459.53;5066652;28;20051;-66
2021/08/05 04:07:10;;;;;;;4.50;3.40;;;;;;;14.90;72.64;100454.41;5066295;28;20071;-67
2021/08/05 04:09:35;;;;;;;6.07;3.88;;;;;;;15.14;71.17;100452.03;5066666;28;20032;-68
2021/08/05 04:12:01;;;;;;;6.72;4.28;;;;;;;15.15;70.25;100451.13;5066541;28;20088;-68
2021/08/05 04:14:26;;;;;;;4.97;4.13;;;;;;;15.08;69.69;100464.38;5065139;28;20048;-67
2021/08/05 04:16:51;;;;;;;6.13;4.28;;;;;;;14.93;69.16;100456.94;5066458;28;20029;-68
2021/08/05 04:19:17;;;;;;;5.88;4.00;;;;;;;14.88;69.54;100457.06;5066552;28;20021;-67
2021/08/05 04:21:43;;;;;;;6.68;4.43;;;;;;;14.96;69.49;100446.41;5066297;28;20025;-67
2021/08/05 04:24:09;;;;;;;5.28;4.10;;;;;;;15.30;69.27;100455.09;5066316;28;20255;-68
2021/08/05 04:26:34;;;;;;;7.82;4.22;;;;;;;15.74;68.83;100450.38;5066288;28;20108;-67
2021/08/05 04:29:00;;;;;;;5.13;3.50;;;;;;;16.19;67.99;100450.81;5066104;28;20515;-67
2021/08/05 04:31:25;;;;;;;7.57;3.50;;;;;;;16.69;66.99;100450.97;5066280;28;20029;-67
2021/08/05 04:33:51;;;;;;;7.22;3.53;;;;;;;17.22;66.26;100449.22;5065910;28;20032;-67
2021/08/05 04:36:16;;;;;;;5.22;3.83;;;;;;;17.83;64.88;100445.22;5066011;28;20044;-67
2021/08/05 04:38:41;;;;;;;4.47;3.00;;;;;;;18.50;63.38;100446.19;5064739;28;20111;-66
2021/08/05 04:41:07;;;;;;;4.63;3.05;;;;;;;19.06;61.45;100442.06;5063460;28;20025;-67
2021/08/05 04:43:32;;;;;;;5.70;3.60;;;;;;;19.41;59.75;100453.75;5065010;28;20036;-67
2021/08/05 04:45:57;;;;;;;5.65;2.70;;;;;;;19.87;58.69;100448.13;5064748;28;20322;-67
2021/08/05 04:48:27;;;;;;;3.65;2.60;;;;;;;20.38;56.67;100446.69;5064931;28;20272;-67
2021/08/05 04:50:53;;;;;;;5.00;2.97;;;;;;;20.55;54.50;100443.19;5064545;28;20021;-67
2021/08/05 04:53:18;;;;;;;4.10;2.80;;;;;;;20.74;53.99;100450.16;5064063;28;20021;-66
2021/08/05 04:55:44;;;;;;;6.40;3.15;;;;;;;21.02;53.42;100444.34;5064445;28;20024;-66
2021/08/05 04:58:10;;;;;;;3.85;2.72;;;;;;;21.47;52.17;100448.25;5064561;28;20159;-66
2021/08/05 05:00:41;;;;;;;4.88;2.60;;;;;;;21.91;51.25;100441.47;5064584;28;20029;-66
2021/08/05 05:03:07;;;;;;;4.30;2.67;;;;;;;22.41;49.64;100444.81;5064362;28;20080;-67
2021/08/05 05:05:33;;;;;;;3.15;2.30;;;;;;;22.74;48.63;100440.31;5064431;28;20017;-67
2021/08/05 05:08:18;;;;;;;6.78;2.83;;;;;;;22.91;47.61;100435.78;5064109;28;20029;-67
2021/08/05 05:10:44;;;;;;;3.58;2.03;;;;;;;23.16;46.63;100442.28;5064384;28;20029;-67
2021/08/05 05:13:10;;;;;;;3.50;2.55;;;;;;;23.46;45.80;100443.13;5064345;28;20025;-67
2021/08/05 05:15:35;;;;;;;3.88;2.33;;;;;;;23.64;44.77;100441.97;5064505;28;20025;-67
2021/08/05 05:18:00;;;;;;;3.20;2.20;;;;;;;23.89;43.37;100442.19;5064379;28;20580;-68
2021/08/05 05:20:26;;;;;;;2.65;2.10;;;;;;;24.06;43.64;100435.81;5064467;28;20385;-67
2021/08/05 05:22:52;;;;;;;4.63;2.50;;;;;;;24.25;42.81;100445.22;5064232;28;20541;-67
2021/08/05 05:25:17;;;;;;;3.88;2.17;;;;;;;24.49;41.76;100448.06;5064389;28;20044;-67
2021/08/05 05:27:43;;;;;;;3.78;2.10;;;;;;;24.59;41.30;100442.13;5062860;28;20477;-67
2021/08/05 05:30:10;;;;;;;3.30;1.73;;;;;;;24.66;40.75;100446.09;5064482;28;20044;-68
2021/08/05 05:32:36;;;;;;;4.32;2.00;;;;;;;24.97;40.54;100437.84;5064029;28;20319;-68
2021/08/05 05:35:03;;;;;;;3.50;2.00;;;;;;;25.43;39.78;100449.69;5063923;28;20508;-68
2021/08/05 05:37:29;;;;;;;4.10;2.17;;;;;;;25.57;39.31;100447.88;5025452;28;1109092;-69
2021/08/05 05:39:55;;;;;;;4.32;1.75;;;;;;;26.08;38.31;100443.38;5065052;28;20043;-68
2021/08/05 05:42:22;;;;;;;4.78;1.70;;;;;;;26.66;37.46;100444.47;5063602;28;20033;-67
2021/08/05 05:44:48;;;;;;;2.50;1.73;;;;;;;26.81;36.37;100435.28;5065117;28;20028;-67
2021/08/05 05:47:13;;;;;;;2.53;1.83;;;;;;;26.96;35.51;100441.25;5063572;28;20032;-67
2021/08/05 05:49:39;;;;;;;5.22;2.20;;;;;;;26.53;35.08;100440.09;5065006;28;20025;-67
2021/08/05 05:52:04;;;;;;;4.88;2.00;;;;;;;25.79;35.88;100439.25;5064896;28;20040;-68
2021/08/05 05:54:30;;;;;;;9.52;2.20;;;;;;;25.20;36.71;100443.34;5064713;28;20013;-67
2021/08/05 05:56:55;;;;;;;4.10;2.13;;;;;;;24.83;37.84;100438.75;5064824;28;20090;-67
2021/08/05 05:59:20;;;;;;;5.45;2.10;;;;;;;24.53;37.64;100434.59;5063428;28;20489;-67
2021/08/05 06:01:46;;;;;;;2.97;2.10;;;;;;;24.30;37.93;100434.34;5064697;28;20055;-66
2021/08/05 06:04:11;;;;;;;2.65;1.80;;;;;;;24.20;38.37;100439.41;5064687;28;20017;-67
2021/08/05 06:06:36;;;;;;;5.75;2.03;;;;;;;24.11;38.50;100435.50;5063863;28;20032;-68
2021/08/05 06:09:02;;;;;;;5.85;1.90;;;;;;;24.23;38.51;100432.06;5064256;28;20021;-67
2021/08/05 06:11:29;;;;;;;4.55;2.03;;;;;;;24.32;38.67;100421.81;5064672;28;20021;-67
2021/08/05 06:13:55;;;;;;;2.88;2.05;;;;;;;24.34;38.24;100425.22;5064396;28;20112;-67
2021/08/05 06:16:21;;;;;;;2.83;2.20;;;;;;;24.22;38.82;100422.41;5064246;28;20089;-67
2021/08/05 06:18:46;;;;;;;2.88;2.25;;;;;;;24.47;38.27;100422.59;5062985;28;20028;-68
2021/08/05 06:21:12;;;;;;;3.75;2.03;;;;;;;24.54;37.54;100428.34;5064257;28;20397;-68
2021/08/05 06:23:37;;;;;;;4.50;2.08;;;;;;;24.39;37.59;100428.41;5064165;28;20025;-67
2021/08/05 06:26:02;;;;;;;2.67;1.73;;;;;;;24.28;38.12;100430.94;5062796;28;20032;-69
2021/08/05 06:28:28;;;;;;;2.42;1.85;;;;;;;24.18;37.72;100431.53;5064098;28;20028;-66
2021/08/05 06:30:53;;;;;;;4.82;2.15;;;;;;;24.03;38.21;100430.69;5064356;28;20116;-70
2021/08/05 06:33:19;;;;;;;3.10;1.95;;;;;;;23.88;38.49;100433.38;5063958;28;20414;-66
2021/08/05 06:35:44;;;;;;;3.47;1.80;;;;;;;23.79;38.61;100422.56;5063893;28;20050;-68
2021/08/05 06:38:09;;;;;;;3.67;1.98;;;;;;;23.97;38.81;100439.06;5062100;28;20049;-69
2021/08/05 06:40:35;;;;;;;4.47;2.40;;;;;;;24.36;38.01;100441.88;5064198;28;20052;-65
2021/08/05 06:43:00;;;;;;;2.55;2.00;;;;;;;24.24;38.38;100435.56;5063721;28;20362;-69
2021/08/05 06:45:25;;;;;;;2.83;1.50;;;;;;;24.16;37.78;100437.88;5063816;28;20489;-71
2021/08/05 06:47:51;;;;;;;5.15;1.80;;;;;;;24.02;36.91;100443.13;5063589;28;20021;-75
2021/08/05 06:50:17;;;;;;;4.95;1.73;;;;;;;23.66;37.64;100439.22;5063865;28;20024;-71
2021/08/05 06:52:46;;;;;;;7.97;1.98;;;;;;;23.46;38.28;100433.41;5063664;28;20051;-79
2021/08/05 06:55:12;;;;;;;2.53;1.73;;;;;;;23.59;37.87;100441.44;5063883;28;20021;-74
2021/08/05 06:57:37;;;;;;;2.60;1.60;;;;;;;23.50;37.26;100448.13;5063642;28;20344;-68
2021/08/05 07:00:04;;;;;;;2.85;1.83;;;;;;;23.24;37.64;100444.44;5062096;28;20029;-78
2021/08/05 07:02:30;;;;;;;3.35;1.65;;;;;;;23.12;38.16;100433.66;5062029;28;20189;-72
2021/08/05 07:05:01;;;;;;;4.40;2.05;;;;;;;23.42;38.22;100431.03;5063379;28;20076;-76
2021/08/05 07:07:26;;;;;;;5.38;2.13;;;;;;;23.60;37.67;100429.00;5063395;28;20056;-73
2021/08/05 07:09:51;;;;;;;3.15;1.70;;;;;;;23.55;37.49;100433.78;5063219;28;20023;-71
2021/08/05 07:12:17;;;;;;;1.75;1.30;;;;;;;23.51;37.65;100430.44;5063267;28;20420;-70
2021/08/05 07:14:43;;;;;;;2.53;1.55;;;;;;;23.49;37.15;100441.16;5063499;28;20075;-70
2021/08/05 07:17:09;;;;;;;3.55;1.65;;;;;;;23.23;36.90;100446.22;5061873;28;20385;-75
2021/08/05 07:19:34;;;;;;;2.22;1.38;;;;;;;22.95;38.18;100441.75;5061818;28;20028;-63
2021/08/05 07:22:00;;;;;;;3.88;1.80;;;;;;;23.17;37.99;100441.31;5063020;28;20021;-63
2021/08/05 07:24:25;;;;;;;1.92;1.45;;;;;;;23.60;36.60;100435.16;5063134;28;20021;-62
2021/08/05 07:26:50;;;;;;;2.05;1.30;;;;;;;23.62;36.11;100435.06;5063237;28;20037;-61
2021/08/05 07:29:16;;;;;;;3.70;1.58;;;;;;;23.50;36.03;100426.94;5063085;28;20102;-63
2021/08/05 07:31:41;;;;;;;3.90;1.60;;;;;;;23.53;36.28;100425.91;5063159;28;20025;-61
2021/08/05 07:34:07;;;;;;;2.58;1.58;;;;;;;23.42;36.09;100434.50;5063073;28;20021;-62
2021/08/05 07:36:32;;;;;;;3.55;1.92;;;;;;;23.55;36.37;100420.53;5063193;28;20052;-65
2021/08/05 07:38:57;;;;;;;3.63;1.45;;;;;;;23.62;36.05;100420.03;5062951;28;20049;-63
2021/08/05 07:41:23;;;;;;;2.25;1.40;;;;;;;23.42;36.43;100426.56;5063337;28;20070;-63
2021/08/05 07:43:48;;;;;;;2.65;1.50;;;;;;;23.47;36.49;100424.50;5063203;28;20024;-62
2021/08/05 07:46:14;;;;;;;2.28;1.33;;;;;;;23.50;36.23;100426.94;5063134;28;20037;-62
2021/08/05 07:48:40;;;;;;;3.00;1.80;;;;;;;23.47;36.43;100424.50;5063192;28;20025;-63
2021/08/05 07:51:05;;;;;;;2.97;1.70;;;;;;;23.51;36.64;100425.97;5063027;28;20074;-62
2021/08/05 07:53:31;;;;;;;2.20;1.50;;;;;;;23.89;36.76;100418.34;5062955;28;20025;-63
2021/08/05 07:55:56;;;;;;;3.03;1.60;;;;;;;24.17;36.00;100432.47;5063026;28;20043;-64
2021/08/05 07:58:22;;;;;;;2.90;1.70;;;;;;;24.08;35.79;100425.94;5062805;28;20032;-62
2021/08/05 08:00:48;;;;;;;3.80;1.92;;;;;;;24.10;36.11;100429.38;5061415;28;20442;-62
2021/08/05 08:03:15;;;;;;;2.90;1.58;;;;;;;24.25;35.86;100435.47;5062918;28;20524;-61
2021/08/05 08:05:40;;;;;;;2.55;1.30;;;;;;;24.80;35.91;100431.00;5062967;28;20023;-61
2021/08/05 08:08:07;;;;;;;3.38;1.52;;;;;;;24.90;34.89;100425.94;5062715;28;20053;-62
2021/08/05 08:10:33;;;;;;;4.72;1.70;;;;;;;25.08;35.02;100426.50;5062975;28;20025;-62
2021/08/05 08:12:58;;;;;;;3.58;1.60;;;;;;;25.36;34.43;100424.53;5062700;28;20036;-64
2021/08/05 08:15:25;;;;;;;2.28;1.42;;;;;;;25.46;34.95;100416.75;5062837;28;20025;-65
2021/08/05 08:17:53;;;;;;;2.17;1.40;;;;;;;25.95;34.09;100411.50;5062631;28;20123;-63
2021/08/05 08:20:20;;;;;;;3.97;1.70;;;;;;;26.01;34.18;100412.88;5062984;28;20048;-63
2021/08/05 08:22:45;;;;;;;3.80;1.50;;;;;;;26.28;33.41;100412.63;5062612;28;20029;-63
2021/08/05 08:25:11;;;;;;;3.35;1.17;;;;;;;26.47;32.80;100412.09;5062717;28;20111;-61
2021/08/05 08:27:38;;;;;;;3.25;1.30;;;;;;;26.71;33.20;100405.88;5062824;28;20048;-61
2021/08/05 08:30:04;;;;;;;2.55;1.33;;;;;;;26.74;32.75;100399.47;5066119;28;20021;-62
2021/08/05 08:32:29;;;;;;;3.42;1.48;;;;;;;26.73;32.76;100406.59;5066168;28;20469;-62
2021/08/05 08:34:55;;;;;;;2.97;1.38;;;;;;;26.92;32.23;100398.97;5066196;28;20047;-62
2021/08/05 08:37:21;;;;;;;3.20;1.48;;;;;;;26.36;33.24;100404.09;5065905;28;20049;-62
2021/08/05 08:39:46;;;;;;;3.78;1.75;;;;;;;25.41;34.22;100402.94;5066228;28;20067;-62
2021/08/05 08:42:14;;;;;;;3.75;2.10;;;;;;;24.73;36.09;100404.88;5066286;28;20095;-63
2021/08/05 08:44:39;;;;;;;2.42;1.73;;;;;;;24.50;36.72;100403.81;5066326;28;20020;-61
2021/08/05 08:47:06;;;;;;;2.53;1.63;;;;;;;24.80;37.11;100399.16;5066238;28;20089;-64
2021/08/05 08:49:32;;;;;;;3.63;1.85;;;;;;;25.56;36.13;100396.53;5066158;28;20021;-63
2021/08/05 08:51:58;;;;;;;3.33;1.70;;;;;;;26.64;34.78;100396.66;5066030;28;20032;-63
2021/08/05 08:54:24;;;;;;;3.40;1.67;;;;;;;27.59;32.56;100391.06;5065913;28;20029;-63
2021/08/05 08:56:52;;;;;;;2.80;1.40;;;;;;;27.97;32.82;100399.63;5065955;28;20100;-64
2021/08/05 08:59:19;;;;;;;3.65;1.98;;;;;;;27.92;31.97;100397.34;5065816;28;20143;-64
2021/08/05 09:01:44;;;;;;;4.18;1.80;;;;;;;27.76;31.70;100394.22;5066079;28;20480;-64
2021/08/05 09:04:11;;;;;;;3.03;1.70;;;;;;;28.28;31.16;100383.72;5065797;28;20031;-63
2021/08/05 09:06:36;;;;;;;2.90;1.65;;;;;;;28.44;31.24;100390.44;5065914;28;20112;-63
2021/08/05 09:09:04;;;;;;;3.80;1.45;;;;;;;28.61;31.27;100390.84;5064415;28;20021;-63
2021/08/05 09:11:30;;;;;;;2.42;1.50;;;;;;;28.96;29.91;100394.97;5066071;28;20021;-64
2021/08/05 09:13:55;;;;;;;3.28;1.73;;;;;;;29.12;30.53;100390.97;5065649;28;20466;-64
2021/08/05 09:16:21;;;;;;;4.38;1.70;;;;;;;28.64;29.09;100396.75;5065745;28;20040;-64
2021/08/05 09:18:46;;;;;;;3.53;1.63;;;;;;;28.11;31.28;100395.81;5064143;28;20048;-63
2021/08/05 09:21:21;;;;;;;4.05;1.88;;;;;;;28.55;30.33;100390.38;5065428;28;20036;-64
2021/08/05 09:23:55;;;;;;;2.92;1.67;;;;;;;28.79;30.30;100389.25;5065347;28;20477;-63
2021/08/05 09:26:43;;;;;;;3.80;1.75;;;;;;;28.97;29.88;100396.66;5065373;28;20368;-63
2021/08/05 09:29:18;;;;;;;4.93;1.50;;;;;;;29.15;30.13;100394.22;5065293;28;20025;-63
2021/08/05 09:31:57;;;;;;;4.90;1.90;;;;;;;29.79;28.80;100385.09;5065158;28;20036;-62
2021/08/05 09:34:31;;;;;;;2.40;1.85;;;;;;;29.97;28.33;100387.88;5065417;28;20049;-62
2021/08/05 09:37:05;;;;;;;4.15;2.10;;;;;;;29.87;28.83;100379.88;5065109;28;20529;-63
2021/08/05 09:39:32;;;;;;;3.13;1.70;;;;;;;30.57;28.25;100382.47;5064354;28;20120;-63
2021/08/05 09:42:12;;;;;;;3.30;1.77;;;;;;;31.17;27.75;100382.13;5064838;28;20043;-63
2021/08/05 09:44:38;;;;;;;6.43;1.95;;;;;;;31.95;26.47;100372.94;5065196;28;20012;-63
2021/08/05 09:47:07;;;;;;;3.15;1.70;;;;;;;32.02;25.53;100382.03;5065092;28;20094;-64
2021/08/05 09:49:34;;;;;;;2.83;1.65;;;;;;;30.91;26.48;100374.78;5065159;28;20052;-63
2021/08/05 09:52:01;;;;;;;3.72;1.90;;;;;;;29.69;27.77;100371.69;5064961;28;20043;-63
2021/08/05 09:54:36;;;;;;;5.13;2.05;;;;;;;28.87;29.28;100379.72;5064719;28;20039;-63
2021/08/05 09:57:02;;;;;;;2.83;1.60;;;;;;;28.40;30.30;100381.88;5064935;28;20040;-63
2021/08/05 09:59:28;;;;;;;3.78;1.80;;;;;;;28.74;29.73;100380.75;5064835;28;20028;-63
2021/08/05 10:02:00;;;;;;;4.78;1.88;;;;;;;28.54;29.81;100383.34;5064740;28;20025;-63
2021/08/05 10:04:36;;;;;;;5.65;2.47;;;;;;;27.35;30.88;100376.97;5064920;28;20025;-62
2021/08/05 10:07:08;;;;;;;3.70;2.00;;;;;;;26.12;32.34;100381.00;5063472;28;20097;-64
2021/08/05 10:09:38;;;;;;;4.95;2.67;;;;;;;25.37;34.43;100384.56;5064649;28;20093;-63
2021/08/05 10:12:25;;;;;;;4.47;2.33;;;;;;;24.79;34.92;100384.19;5064851;28;20020;-63
2021/08/05 10:15:07;;;;;;;5.13;2.08;;;;;;;24.11;36.40;100382.47;5064570;28;20013;-63
2021/08/05 10:17:34;;;;;;;5.50;2.00;;;;;;;23.95;37.67;100394.09;5064708;28;20025;-63
2021/08/05 10:20:03;;;;;;;6.93;1.92;;;;;;;24.03;37.51;100385.63;5064438;28;20025;-63
2021/08/05 10:22:29;;;;;;;3.97;1.70;;;;;;;24.48;37.35;100380.03;5064415;28;20032;-63
2021/08/05 10:24:57;;;;;;;4.50;2.38;;;;;;;25.58;36.62;100376.00;5064436;28;20036;-63
2021/08/05 10:27:22;;;;;;;3.95;1.83;;;;;;;26.46;34.74;100378.47;5064340;28;20029;-63
2021/08/05 10:29:50;;;;;;;2.90;1.75;;;;;;;27.49;33.68;100366.16;5064283;28;20168;-63
2021/08/05 10:32:17;;;;;;;3.63;1.80;;;;;;;28.06;32.08;100376.66;5064410;28;20051;-64
2021/08/05 10:34:43;;;;;;;4.50;1.90;;;;;;;27.77;31.89;100372.78;5064202;28;20029;-64
2021/08/05 10:37:12;;;;;;;3.30;1.70;;;;;;;27.14;32.21;100376.03;5064094;28;20045;-63
2021/08/05 10:39:38;;;;;;;5.15;2.00;;;;;;;26.50;32.64;100372.91;5064247;28;20069;-65
2021/08/05 10:42:12;;;;;;;6.82;2.30;;;;;;;26.10;33.70;100374.97;5063960;28;20029;-63
2021/08/05 10:44:39;;;;;;;4.22;2.13;;;;;;;26.96;33.17;100366.69;5064052;28;20101;-64
2021/08/05 10:47:07;;;;;;;4.68;2.70;;;;;;;28.06;31.92;100374.00;5063918;28;20140;-63
2021/08/05 10:49:33;;;;;;;3.30;1.73;;;;;;;29.22;30.44;100367.75;5062700;28;20020;-64
2021/08/05 10:51:59;;;;;;;2.67;1.55;;;;;;;30.21;28.93;100357.19;5063386;28;20059;-65
2021/08/05 10:54:52;;;;;;;2.83;1.63;;;;;;;31.44;28.52;100354.66;5063613;28;20088;-64
2021/08/05 10:57:19;;;;;;;3.67;1.92;;;;;;;32.12;26.76;100360.47;5063802;28;20386;-65
2021/08/05 11:00:15;;;;;;;3.92;2.17;;;;;;;32.49;25.84;100353.97;5063518;28;20401;-65
2021/08/05 11:02:51;;;;;;;6.20;2.08;;;;;;;32.25;25.75;100366.25;5062434;28;20045;-65
2021/08/05 11:05:22;;;;;;;2.92;1.55;;;;;;;31.37;26.63;100359.72;5063755;28;20108;-64
2021/08/05 11:07:48;;;;;;;;;;;;;;;30.99;27.36;100365.16;5064015;28;20025;-64
2021/08/05 11:10:14;;;;;;;3.17;1.77;;;;;;;30.50;27.54;100363.47;5063817;28;19905;-63
2021/08/05 11:12:48;;;;;;;4.18;1.88;;;;;;;29.93;27.82;100365.94;5063542;28;20035;-63
2021/08/05 11:15:33;;;;;;;3.75;1.63;;;;;;;29.11;29.02;100360.69;5063692;28;20029;-64
2021/08/05 11:18:11;;;;;;;4.10;1.90;;;;;;;28.79;29.35;100367.00;5063598;28;20402;-63
2021/08/05 11:20:42;;;;;;;4.53;1.73;;;;;;;28.07;30.34;100370.34;5063252;28;20076;-66
2021/08/05 11:23:36;;;;;;;4.32;1.52;;;;;;;27.36;30.94;100364.50;5063297;28;20021;-66
2021/08/05 11:26:07;;;;;;;4.68;2.20;;;;;;;26.90;32.00;100359.16;5061890;28;20053;-67